Time;durP1;ratioP1;P1;durP2;ratioP2;P2;SDS_P1;SDS_P2;PMS_P1;PMS_P2;Temp;Humidity;BMP_temperature;BMP_pressure;BME280_temperature;BME280_humidity;BME280_pressure;Samples;Min_cycle;Max_cycle;Signal;HPM_P1;HPM_P2
2020/12/23 00:01:21;;;;;;;0.70;0.70;;;14.50;99.90;;;;;;5076727;28;20212;-76
2020/12/23 00:03:46;;;;;;;0.60;0.60;;;14.40;99.90;;;;;;5076172;28;20253;-74
2020/12/23 00:06:12;;;;;;;7.13;1.38;;;14.50;99.90;;;;;;5076478;28;20625;-76
2020/12/23 00:08:38;;;;;;;0.65;0.65;;;14.40;99.90;;;;;;5058435;28;20552;-77
2020/12/23 00:11:03;;;;;;;0.65;0.65;;;14.50;99.90;;;;;;5076459;28;20166;-76
2020/12/23 00:13:29;;;;;;;0.50;0.50;;;14.60;99.90;;;;;;5076359;28;20529;-76
2020/12/23 00:15:55;;;;;;;1.73;0.80;;;14.70;99.90;;;;;;5076106;28;20195;-76
2020/12/23 00:18:21;;;;;;;1.50;1.33;;;14.80;99.90;;;;;;5076197;28;20212;-76
2020/12/23 00:20:46;;;;;;;0.30;0.30;;;14.70;99.90;;;;;;5076257;28;20226;-76
2020/12/23 00:23:12;;;;;;;1.48;1.02;;;14.40;99.90;;;;;;5076166;28;20159;-77
2020/12/23 00:25:37;;;;;;;0.30;0.30;;;14.40;99.90;;;;;;5076205;28;20195;-77
2020/12/23 00:28:03;;;;;;;0.40;0.40;;;14.40;99.90;;;;;;5075257;28;20167;-76
2020/12/23 00:30:28;;;;;;;1.08;0.60;;;14.60;99.90;;;;;;5076018;28;20676;-76
2020/12/23 00:32:54;;;;;;;0.50;0.50;;;14.60;99.90;;;;;;5076493;28;20171;-77
2020/12/23 00:35:20;;;;;;;1.08;0.68;;;14.60;99.90;;;;;;5075933;28;20191;-76
2020/12/23 00:37:45;;;;;;;1.45;0.60;;;14.50;99.90;;;;;;5075805;28;20242;-77
2020/12/23 00:40:11;;;;;;;1.75;0.90;;;14.50;99.90;;;;;;5075721;28;20193;-76
2020/12/23 00:42:37;;;;;;;0.70;0.70;;;14.60;99.90;;;;;;5075723;28;20170;-77
2020/12/23 00:45:03;;;;;;;0.57;0.57;;;14.70;99.90;;;;;;5075758;28;20276;-76
2020/12/23 00:47:28;;;;;;;0.20;0.20;;;14.80;99.90;;;;;;5075765;28;20166;-76
2020/12/23 00:49:54;;;;;;;1.80;0.70;;;14.80;99.90;;;;;;5057610;28;20302;-75
2020/12/23 00:52:19;;;;;;;0.10;0.10;;;14.70;99.90;;;;;;5075537;28;20174;-76
2020/12/23 00:54:45;;;;;;;0.43;0.43;;;14.70;99.90;;;;;;5075306;28;20213;-76
2020/12/23 00:57:10;;;;;;;0.68;0.68;;;14.80;99.90;;;;;;5075348;28;20170;-73
2020/12/23 00:59:36;;;;;;;0.32;0.32;;;14.40;99.90;;;;;;5075272;28;20186;-75
2020/12/23 01:02:03;;;;;;;1.30;0.85;;;14.40;99.90;;;;;;5075435;28;20217;-76
2020/12/23 01:04:29;;;;;;;0.30;0.30;;;14.50;99.90;;;;;;5075334;28;20714;-74
2020/12/23 01:06:55;;;;;;;0.30;0.30;;;14.50;99.90;;;;;;5079059;28;20246;-73
2020/12/23 01:09:20;;;;;;;0.35;0.35;;;14.40;99.90;;;;;;5079715;28;20171;-74
2020/12/23 01:11:48;;;;;;;0.40;0.32;;;14.60;99.90;;;;;;5079258;28;20162;-75
2020/12/23 01:14:14;;;;;;;0.20;0.20;;;14.60;99.90;;;;;;5075108;28;20194;-75
2020/12/23 01:16:40;;;;;;;0.47;0.47;;;14.80;99.90;;;;;;5074917;28;20163;-74
2020/12/23 01:19:06;;;;;;;0.30;0.30;;;14.90;99.90;;;;;;5074810;28;20173;-75
2020/12/23 01:21:31;;;;;;;1.33;0.70;;;14.90;99.90;;;;;;5074849;28;20200;-76
2020/12/23 01:23:57;;;;;;;1.33;0.63;;;14.60;99.90;;;;;;5074764;28;20183;-76
2020/12/23 01:26:22;;;;;;;0.30;0.30;;;14.10;99.90;;;;;;5074733;28;20163;-75
2020/12/23 01:28:48;;;;;;;0.20;0.20;;;14.00;99.90;;;;;;5074743;28;20212;-75
2020/12/23 01:31:13;;;;;;;0.55;0.55;;;14.00;99.90;;;;;;5074719;28;20194;-75
2020/12/23 01:33:39;;;;;;;0.28;0.28;;;14.10;99.90;;;;;;5074510;28;20163;-74
2020/12/23 01:36:04;;;;;;;0.20;0.20;;;14.20;99.90;;;;;;5074444;28;20174;-75
2020/12/23 01:38:30;;;;;;;0.47;0.47;;;14.10;99.90;;;;;;5074595;28;20171;-75
2020/12/23 01:41:00;;;;;;;1.98;0.80;;;14.00;99.90;;;;;;5074242;28;20537;-74
2020/12/23 01:43:27;;;;;;;0.55;0.55;;;14.20;99.90;;;;;;5074294;28;20187;-74
2020/12/23 01:45:53;;;;;;;0.60;0.55;;;14.30;99.90;;;;;;5074259;28;20187;-77
2020/12/23 01:48:25;;;;;;;0.30;0.30;;;14.40;99.90;;;;;;5074275;28;20186;-75
2020/12/23 01:50:51;;;;;;;0.35;0.35;;;14.40;99.90;;;;;;5074175;28;20165;-75
2020/12/23 01:53:17;;;;;;;0.57;0.57;;;14.40;99.90;;;;;;5074074;28;20167;-76
2020/12/23 01:55:46;;;;;;;0.75;0.75;;;14.30;99.90;;;;;;5073965;28;20276;-75
2020/12/23 01:58:13;;;;;;;0.30;0.30;;;14.30;99.90;;;;;;5074138;28;20150;-75
2020/12/23 02:00:40;;;;;;;0.40;0.40;;;14.40;99.90;;;;;;5074029;28;20744;-75
2020/12/23 02:03:09;;;;;;;0.73;0.73;;;14.50;99.90;;;;;;5073858;28;20735;-75
2020/12/23 02:05:35;;;;;;;0.25;0.25;;;14.50;99.90;;;;;;5073733;28;20553;-74
2020/12/23 02:08:01;;;;;;;0.50;0.50;;;14.50;99.90;;;;;;5074003;28;20162;-76
2020/12/23 02:10:27;;;;;;;0.20;0.20;;;14.40;99.90;;;;;;5073847;28;20697;-76
2020/12/23 02:12:53;;;;;;;0.65;0.57;;;14.40;99.90;;;;;;5073800;28;20169;-74
2020/12/23 02:15:19;;;;;;;0.40;0.40;;;14.40;99.90;;;;;;5073789;28;20190;-75
2020/12/23 02:17:46;;;;;;;1.58;0.50;;;14.50;99.90;;;;;;5073764;28;20572;-77
2020/12/23 02:20:14;;;;;;;0.47;0.47;;;14.60;99.90;;;;;;5073640;28;20240;-76
2020/12/23 02:22:41;;;;;;;0.38;0.38;;;14.60;99.90;;;;;;5073702;28;20173;-76
2020/12/23 02:25:07;;;;;;;0.40;0.40;;;14.70;99.90;;;;;;5073559;28;20221;-77
2020/12/23 02:27:33;;;;;;;0.70;0.70;;;14.60;99.90;;;;;;5073724;28;20671;-76
2020/12/23 02:30:00;;;;;;;0.40;0.40;;;14.40;99.90;;;;;;5073575;28;20254;-77
2020/12/23 02:32:26;;;;;;;1.20;1.20;;;14.30;99.90;;;;;;5073566;28;20174;-77
2020/12/23 02:34:52;;;;;;;0.20;0.20;;;14.40;99.90;;;;;;5055418;28;20668;-76
2020/12/23 02:37:18;;;;;;;0.82;0.82;;;14.50;99.90;;;;;;5073475;28;20520;-76
2020/12/23 02:39:47;;;;;;;0.13;0.13;;;14.50;99.90;;;;;;5073274;28;20167;-77
2020/12/23 02:42:13;;;;;;;0.30;0.30;;;14.40;99.90;;;;;;5073425;28;20174;-76
2020/12/23 02:44:38;;;;;;;0.63;0.63;;;14.50;99.90;;;;;;5073306;28;20657;-76
2020/12/23 02:47:11;;;;;;;6.03;0.95;;;14.20;99.90;;;;;;5073430;28;20299;-76
2020/12/23 02:49:38;;;;;;;0.38;0.38;;;14.20;99.90;;;;;;5072966;28;20163;-77
2020/12/23 02:52:05;;;;;;;0.40;0.40;;;14.20;99.90;;;;;;5073255;28;21022;-76
2020/12/23 02:54:30;;;;;;;0.85;0.85;;;14.20;99.90;;;;;;5073222;28;20197;-76
2020/12/23 02:56:56;;;;;;;0.28;0.28;;;14.20;99.90;;;;;;5073084;28;20167;-76
2020/12/23 02:59:21;;;;;;;0.20;0.20;;;14.40;99.90;;;;;;5073222;28;20227;-76
2020/12/23 03:01:47;;;;;;;6.32;1.65;;;14.30;99.90;;;;;;5073096;28;20557;-76
2020/12/23 03:04:13;;;;;;;0.15;0.15;;;14.20;99.90;;;;;;5073103;28;20225;-77
2020/12/23 03:06:38;;;;;;;0.43;0.43;;;14.20;99.90;;;;;;5073087;28;20170;-75
2020/12/23 03:09:10;;;;;;;0.20;0.20;;;14.20;99.90;;;;;;5072962;28;20184;-75
2020/12/23 03:11:36;;;;;;;0.25;0.25;;;14.00;99.90;;;;;;5072997;28;20622;-76
2020/12/23 03:14:03;;;;;;;0.10;0.10;;;13.90;99.90;;;;;;5054958;28;20194;-76
2020/12/23 03:16:28;;;;;;;0.20;0.20;;;13.90;99.90;;;;;;5072998;28;20155;-76
2020/12/23 03:18:54;;;;;;;0.20;0.20;;;14.00;99.90;;;;;;5073006;28;20185;-75
2020/12/23 03:21:20;;;;;;;0.10;0.10;;;14.10;99.90;;;;;;5072870;28;20251;-74
2020/12/23 03:23:45;;;;;;;0.40;0.40;;;14.10;99.90;;;;;;5072795;28;20178;-76
2020/12/23 03:26:11;;;;;;;0.30;0.30;;;14.20;99.90;;;;;;5072831;28;20170;-75
2020/12/23 03:28:36;;;;;;;0.77;0.40;;;14.20;99.90;;;;;;5072838;28;20296;-74
2020/12/23 03:31:03;;;;;;;0.40;0.32;;;14.10;99.90;;;;;;5054915;28;20181;-75
2020/12/23 03:33:29;;;;;;;0.30;0.30;;;14.10;99.90;;;;;;5072746;28;20171;-76
2020/12/23 03:35:56;;;;;;;0.43;0.43;;;14.00;99.90;;;;;;5072765;28;20222;-74
2020/12/23 03:38:22;;;;;;;0.43;0.43;;;13.80;99.90;;;;;;5054787;28;20173;-76
2020/12/23 03:40:47;;;;;;;25.58;0.73;;;13.80;99.90;;;;;;5072641;28;20190;-74
2020/12/23 03:43:13;;;;;;;0.80;0.80;;;13.70;99.90;;;;;;5054762;28;20167;-76
2020/12/23 03:45:39;;;;;;;1.02;0.93;;;13.60;99.90;;;;;;5072667;28;20193;-76
2020/12/23 03:48:05;;;;;;;3.92;0.82;;;13.60;99.90;;;;;;5072708;28;20159;-75
2020/12/23 03:50:31;;;;;;;8.88;1.00;;;13.70;99.90;;;;;;5072668;28;20173;-74
2020/12/23 03:52:58;;;;;;;0.70;0.70;;;13.60;99.90;;;;;;5072631;28;20166;-75
2020/12/23 03:55:23;;;;;;;0.75;0.57;;;13.70;99.90;;;;;;5072469;28;20194;-75
2020/12/23 03:57:49;;;;;;;2.53;0.73;;;13.70;99.90;;;;;;5072484;28;20170;-76
2020/12/23 04:00:14;;;;;;;0.28;0.28;;;13.80;99.90;;;;;;5054476;28;20305;-75
2020/12/23 04:02:40;;;;;;;0.25;0.25;;;13.70;99.90;;;;;;5073874;28;20279;-75
2020/12/23 04:05:07;;;;;;;0.10;0.10;;;13.60;99.90;;;;;;5076108;28;20194;-74
2020/12/23 04:07:33;;;;;;;0.28;0.28;;;13.60;99.90;;;;;;5076292;28;20166;-75
2020/12/23 04:09:59;;;;;;;0.75;0.75;;;13.60;99.90;;;;;;5076038;28;20221;-75
2020/12/23 04:12:25;;;;;;;0.80;0.80;;;13.50;99.90;;;;;;5076002;28;20202;-75
2020/12/23 04:14:51;;;;;;;0.55;0.55;;;13.50;99.90;;;;;;5075978;28;20261;-75
2020/12/23 04:17:17;;;;;;;0.20;0.20;;;13.50;99.90;;;;;;5075956;28;20618;-76
2020/12/23 04:19:42;;;;;;;0.10;0.10;;;13.60;99.90;;;;;;5075987;28;20169;-74
2020/12/23 04:22:08;;;;;;;0.20;0.20;;;13.60;99.90;;;;;;5075831;28;20528;-75
2020/12/23 04:24:34;;;;;;;0.20;0.20;;;13.50;99.90;;;;;;5076145;28;20235;-76
2020/12/23 04:26:59;;;;;;;0.10;0.10;;;13.50;99.90;;;;;;5075975;28;20194;-75
2020/12/23 04:29:25;;;;;;;1.77;0.50;;;13.60;99.90;;;;;;5057760;28;20174;-76
2020/12/23 04:31:51;;;;;;;0.70;0.70;;;13.60;99.90;;;;;;5076434;28;20151;-76
2020/12/23 04:34:16;;;;;;;0.40;0.40;;;13.60;99.90;;;;;;5075744;28;20233;-74
2020/12/23 04:36:42;;;;;;;0.30;0.30;;;13.60;99.90;;;;;;5075708;28;20170;-74
2020/12/23 04:39:08;;;;;;;0.20;0.20;;;13.60;99.90;;;;;;5075628;28;20171;-74
2020/12/23 04:41:34;;;;;;;0.65;0.55;;;13.40;99.90;;;;;;5075470;28;20194;-74
2020/12/23 04:44:01;;;;;;;0.10;0.10;;;13.50;99.90;;;;;;5075514;28;20277;-75
2020/12/23 04:46:32;;;;;;;0.43;0.43;;;13.50;99.90;;;;;;5075412;28;20695;-74
2020/12/23 04:48:59;;;;;;;0.38;0.38;;;13.60;99.90;;;;;;5075364;28;20220;-74
2020/12/23 04:51:30;;;;;;;0.10;0.10;;;13.60;99.90;;;;;;5075380;28;20610;-74
2020/12/23 04:54:00;;;;;;;0.20;0.20;;;13.60;99.90;;;;;;5057433;28;20201;-77
2020/12/23 04:56:27;;;;;;;0.30;0.30;;;13.70;99.90;;;;;;5075215;28;20205;-77
2020/12/23 04:58:54;;;;;;;0.70;0.68;;;13.90;99.90;;;;;;5075242;28;20163;-77
2020/12/23 05:01:20;;;;;;;3.05;0.50;;;14.00;99.90;;;;;;5075144;28;20206;-77
2020/12/23 05:03:45;;;;;;;0.20;0.20;;;13.90;99.90;;;;;;5074849;28;20708;-77
2020/12/23 05:06:11;;;;;;;0.10;0.10;;;13.90;99.90;;;;;;5075266;28;20177;-75
2020/12/23 05:08:37;;;;;;;0.10;0.10;;;13.90;99.90;;;;;;5074953;28;20212;-76
2020/12/23 05:11:06;;;;;;;0.10;0.10;;;13.90;99.90;;;;;;5074852;28;20550;-77
2020/12/23 05:13:32;;;;;;;0.55;0.55;;;13.60;99.90;;;;;;5074540;28;20177;-77
2020/12/23 05:15:57;;;;;;;0.10;0.10;;;13.60;99.90;;;;;;5074902;28;20195;-77
2020/12/23 05:18:35;;;;;;;6.43;1.95;;;13.80;99.90;;;;;;5074775;28;20684;-77
2020/12/23 05:21:01;;;;;;;0.35;0.35;;;13.80;99.90;;;;;;5074781;28;20193;-77
2020/12/23 05:23:30;;;;;;;0.25;0.25;;;13.70;99.90;;;;;;5074670;28;20158;-78
2020/12/23 05:26:05;;;;;;;0.10;0.10;;;13.70;99.90;;;;;;5074593;28;20190;-77
2020/12/23 05:28:31;;;;;;;0.10;0.10;;;13.80;99.90;;;;;;5074851;28;20189;-78
2020/12/23 05:30:57;;;;;;;0.73;0.20;;;13.90;99.90;;;;;;5074750;28;20610;-77
2020/12/23 05:33:22;;;;;;;0.10;0.10;;;13.80;99.90;;;;;;5056378;28;20178;-77
2020/12/23 05:35:48;;;;;;;0.10;0.10;;;13.80;99.90;;;;;;5074315;28;20194;-76
2020/12/23 05:38:19;;;;;;;0.10;0.10;;;13.90;99.90;;;;;;5074449;28;20686;-76
2020/12/23 05:40:44;;;;;;;0.10;0.10;;;14.20;99.90;;;;;;5074357;28;20296;-77
2020/12/23 05:43:10;;;;;;;0.10;0.10;;;14.10;99.90;;;;;;5074311;28;20625;-75
2020/12/23 05:45:41;;;;;;;0.10;0.10;;;13.90;99.90;;;;;;5073871;28;20186;-76
2020/12/23 05:48:15;;;;;;;0.20;0.20;;;14.00;99.90;;;;;;5074242;28;20230;-76
2020/12/23 05:50:40;;;;;;;0.35;0.35;;;14.00;99.90;;;;;;5074200;28;20174;-75
2020/12/23 05:53:14;;;;;;;0.20;0.20;;;14.00;99.90;;;;;;5074052;28;20618;-75
2020/12/23 05:55:50;;;;;;;0.35;0.35;;;13.70;99.90;;;;;;5074048;28;20221;-75
2020/12/23 05:58:27;;;;;;;0.10;0.10;;;13.60;99.90;;;;;;5073958;28;20158;-75
2020/12/23 06:00:55;;;;;;;0.50;0.50;;;13.50;99.90;;;;;;5073833;28;20675;-75
2020/12/23 06:03:31;;;;;;;0.75;0.45;;;13.40;99.90;;;;;;5073734;28;20218;-75
2020/12/23 06:05:59;;;;;;;0.20;0.20;;;13.50;99.90;;;;;;5073587;28;20669;-75
2020/12/23 06:08:36;;;;;;;0.10;0.10;;;13.70;99.90;;;;;;5073827;28;20169;-75
2020/12/23 06:11:27;;;;;;;0.45;0.43;;;13.70;99.90;;;;;;5073594;28;20178;-75
2020/12/23 06:14:11;;;;;;;0.45;0.28;;;13.70;99.90;;;;;;5073664;28;20159;-75
2020/12/23 06:16:41;;;;;;;0.13;0.13;;;13.50;99.90;;;;;;5073582;28;20245;-75
2020/12/23 06:19:23;;;;;;;0.10;0.10;;;13.50;99.90;;;;;;5073473;28;20219;-75
2020/12/23 06:21:50;;;;;;;0.20;0.20;;;13.60;99.90;;;;;;5073432;28;20202;-75
2020/12/23 06:24:15;;;;;;;0.17;0.17;;;13.60;99.90;;;;;;5073184;28;20233;-75
2020/12/23 06:26:43;;;;;;;0.20;0.20;;;13.70;99.90;;;;;;5073135;28;20642;-75
2020/12/23 06:29:11;;;;;;;0.32;0.32;;;13.70;99.90;;;;;;5073426;28;20245;-76
2020/12/23 06:31:46;;;;;;;2.63;0.32;;;13.70;99.90;;;;;;5073472;28;20505;-75
2020/12/23 06:34:23;;;;;;;0.10;0.10;;;13.70;99.90;;;;;;5073423;28;20185;-76
2020/12/23 06:36:49;;;;;;;0.10;0.10;;;13.50;99.90;;;;;;5073209;28;20216;-77
2020/12/23 06:39:18;;;;;;;0.20;0.20;;;13.50;99.90;;;;;;5072442;28;20656;-77
2020/12/23 06:42:13;;;;;;;0.20;0.20;;;13.60;99.90;;;;;;5054570;28;20210;-77
2020/12/23 06:44:42;;;;;;;0.30;0.30;;;13.50;99.90;;;;;;5051134;28;20203;-76
2020/12/23 06:47:12;;;;;;;0.57;0.57;;;13.70;99.90;;;;;;5072453;28;20655;-76
2020/12/23 06:49:38;;;;;;;0.30;0.30;;;13.80;99.90;;;;;;5069687;28;20163;-78
2020/12/23 06:52:26;;;;;;;0.20;0.20;;;13.90;99.90;;;;;;5055120;28;20622;-78
2020/12/23 06:55:00;;;;;;;0.20;0.20;;;13.80;99.90;;;;;;5054696;28;20190;-76
2020/12/23 06:57:37;;;;;;;0.30;0.30;;;13.70;99.90;;;;;;5072851;28;20189;-75
2020/12/23 07:00:13;;;;;;;0.22;0.22;;;13.70;99.90;;;;;;5072570;28;20170;-75
2020/12/23 07:02:38;;;;;;;0.20;0.20;;;13.90;99.90;;;;;;5072704;28;20225;-75
2020/12/23 07:05:04;;;;;;;0.65;0.43;;;14.00;99.90;;;;;;5072593;28;20190;-75
2020/12/23 07:07:37;;;;;;;0.57;0.28;;;14.00;99.90;;;;;;5054723;28;20170;-76
2020/12/23 07:10:09;;;;;;;0.22;0.22;;;13.60;99.90;;;;;;5054832;28;20196;-75
2020/12/23 07:12:41;;;;;;;0.20;0.20;;;13.50;99.90;;;;;;5072637;28;20177;-76
2020/12/23 07:15:16;;;;;;;0.17;0.17;;;13.60;99.90;;;;;;5072326;28;20704;-76
2020/12/23 07:17:44;;;;;;;0.20;0.20;;;13.70;99.90;;;;;;5072185;28;20466;-75
2020/12/23 07:20:12;;;;;;;0.10;0.10;;;13.80;99.90;;;;;;5081038;28;20177;-77
2020/12/23 07:22:38;;;;;;;0.30;0.30;;;13.90;99.90;;;;;;5088344;28;20169;-76
2020/12/23 07:25:04;;;;;;;0.68;0.68;;;14.00;99.90;;;;;;5071788;28;20194;-76
2020/12/23 07:27:32;;;;;;;0.47;0.47;;;14.00;99.90;;;;;;5087460;28;20177;-75
2020/12/23 07:30:08;;;;;;;0.30;0.30;;;14.10;99.90;;;;;;5089150;28;20595;-76
2020/12/23 07:32:34;;;;;;;2.38;0.47;;;14.10;99.90;;;;;;5090404;28;20271;-75
2020/12/23 07:35:00;;;;;;;0.30;0.30;;;14.40;99.90;;;;;;5089919;28;20677;-77
2020/12/23 07:37:40;;;;;;;0.30;0.30;;;14.20;99.90;;;;;;5090129;28;20702;-75
2020/12/23 07:40:16;;;;;;;2.30;0.30;;;14.20;99.90;;;;;;5094818;28;20182;-76
2020/12/23 07:42:49;;;;;;;0.47;0.47;;;14.20;99.90;;;;;;5096780;28;20223;-78
2020/12/23 07:45:15;;;;;;;0.20;0.20;;;14.30;99.90;;;;;;5096686;28;20180;-78
2020/12/23 07:48:03;;;;;;;0.20;0.20;;;14.40;99.90;;;;;;5096780;28;20184;-77
2020/12/23 07:50:31;;;;;;;0.30;0.30;;;14.50;99.90;;;;;;5096495;28;20166;-77
2020/12/23 07:52:57;;;;;;;0.50;0.50;;;14.50;99.90;;;;;;5078460;28;20181;-78
2020/12/23 07:55:24;;;;;;;0.28;0.28;;;14.40;99.90;;;;;;5096449;28;20273;-78
2020/12/23 07:57:51;;;;;;;0.47;0.43;;;14.50;99.90;;;;;;5096416;28;20162;-77
2020/12/23 08:00:17;;;;;;;5.43;0.52;;;14.40;99.90;;;;;;5096353;28;20208;-78
2020/12/23 08:02:43;;;;;;;0.22;0.22;;;14.30;99.90;;;;;;5096111;28;20222;-78
2020/12/23 08:05:10;;;;;;;0.20;0.20;;;14.30;99.90;;;;;;5096342;28;20190;-78
2020/12/23 08:07:40;;;;;;;0.13;0.13;;;14.40;99.90;;;;;;5096674;28;20219;-77
2020/12/23 08:10:12;;;;;;;0.20;0.20;;;14.30;99.90;;;;;;5096355;28;20499;-86
2020/12/23 08:12:39;;;;;;;0.20;0.20;;;14.40;99.90;;;;;;5079093;28;20165;-86
2020/12/23 08:15:12;;;;;;;0.20;0.20;;;14.50;99.90;;;;;;5077912;28;20281;-77
2020/12/23 08:17:38;;;;;;;0.30;0.20;;;14.60;99.90;;;;;;5096134;28;20664;-78
2020/12/23 08:20:14;;;;;;;0.20;0.20;;;14.40;99.90;;;;;;5096036;28;20165;-78
2020/12/23 08:22:43;;;;;;;0.30;0.20;;;14.40;99.90;;;;;;5096012;28;20168;-79
2020/12/23 08:25:14;;;;;;;0.25;0.25;;;14.60;99.90;;;;;;5077642;28;20182;-78
2020/12/23 08:27:44;;;;;;;2.08;0.55;;;14.60;99.90;;;;;;5096035;28;20150;-78
2020/12/23 08:30:17;;;;;;;0.55;0.55;;;14.70;99.90;;;;;;5095967;28;20162;-78
2020/12/23 08:33:06;;;;;;;0.10;0.10;;;14.70;99.90;;;;;;5095901;28;20204;-77
2020/12/23 08:35:36;;;;;;;0.22;0.22;;;14.20;99.90;;;;;;5095726;28;20280;-76
2020/12/23 08:38:01;;;;;;;0.75;0.73;;;14.00;99.90;;;;;;5095570;28;20686;-77
2020/12/23 08:40:27;;;;;;;0.60;0.60;;;14.10;99.90;;;;;;5077383;28;20206;-77
2020/12/23 08:42:58;;;;;;;0.55;0.55;;;14.10;99.90;;;;;;5095711;28;20166;-77
2020/12/23 08:45:29;;;;;;;0.13;0.13;;;14.10;99.90;;;;;;5095481;28;20536;-77
2020/12/23 08:47:55;;;;;;;0.90;0.20;;;14.10;99.90;;;;;;5094935;28;20188;-77
2020/12/23 08:50:24;;;;;;;5.28;0.75;;;14.00;99.90;;;;;;5095518;28;20166;-78
2020/12/23 08:52:52;;;;;;;0.10;0.10;;;14.00;99.90;;;;;;5095681;28;20166;-79
2020/12/23 08:55:26;;;;;;;0.32;0.32;;;14.00;99.90;;;;;;5095228;28;20585;-78
2020/12/23 08:58:08;;;;;;;0.10;0.10;;;14.00;99.90;;;;;;5076875;28;20172;-79
2020/12/23 09:00:34;;;;;;;0.60;0.60;;;14.20;99.90;;;;;;5095289;28;20215;-78
2020/12/23 09:03:00;;;;;;;0.20;0.20;;;14.30;99.90;;;;;;5095077;28;20716;-79
2020/12/23 09:05:31;;;;;;;1.88;0.57;;;14.30;99.90;;;;;;5095095;28;20272;-78
2020/12/23 09:08:11;;;;;;;0.20;0.20;;;14.20;99.90;;;;;;5077063;28;20181;-77
2020/12/23 09:10:38;;;;;;;0.88;0.30;;;14.20;99.90;;;;;;5076931;28;20169;-78
2020/12/23 09:13:08;;;;;;;0.45;0.45;;;14.20;99.90;;;;;;5094898;28;20170;-78
2020/12/23 09:15:35;;;;;;;0.20;0.20;;;14.30;99.90;;;;;;5093613;28;20221;-78
2020/12/23 09:18:08;;;;;;;0.22;0.22;;;14.10;99.90;;;;;;5095472;28;20529;-83
2020/12/23 09:20:35;;;;;;;0.10;0.10;;;14.10;99.90;;;;;;5077172;28;20544;-79
2020/12/23 09:23:03;;;;;;;0.13;0.13;;;13.80;99.90;;;;;;5094459;28;20278;-77
2020/12/23 09:25:34;;;;;;;0.10;0.10;;;13.90;99.90;;;;;;5094706;28;20197;-78
2020/12/23 09:28:07;;;;;;;0.32;0.32;;;13.90;99.90;;;;;;5094692;28;20154;-75
2020/12/23 09:30:58;;;;;;;1.08;0.30;;;14.00;99.90;;;;;;5094550;28;20177;-78
2020/12/23 09:33:24;;;;;;;2.65;0.75;;;14.10;99.90;;;;;;5094547;28;20629;-77
2020/12/23 09:35:51;;;;;;;0.35;0.35;;;14.10;99.90;;;;;;5094531;28;20185;-78
2020/12/23 09:38:24;;;;;;;0.40;0.40;;;14.10;99.90;;;;;;5094583;28;20154;-77
2020/12/23 09:40:53;;;;;;;0.10;0.10;;;14.00;99.90;;;;;;5094623;28;20220;-78
2020/12/23 09:43:21;;;;;;;0.20;0.20;;;13.90;99.90;;;;;;5076411;28;20166;-78
2020/12/23 09:45:49;;;;;;;0.17;0.17;;;13.70;99.90;;;;;;5094461;28;20197;-77
2020/12/23 09:48:15;;;;;;;0.63;0.63;;;13.80;99.90;;;;;;5094097;28;20158;-76
2020/12/23 09:50:41;;;;;;;0.10;0.10;;;13.90;99.90;;;;;;5094094;28;20154;-76
2020/12/23 09:53:08;;;;;;;0.28;0.28;;;13.70;99.90;;;;;;5093883;28;20260;-82
2020/12/23 09:55:34;;;;;;;0.45;0.45;;;13.70;99.90;;;;;;5076147;28;20186;-80
2020/12/23 09:57:59;;;;;;;0.40;0.40;;;13.60;99.90;;;;;;5075984;28;20219;-80
2020/12/23 10:00:27;;;;;;;0.20;0.20;;;13.60;99.90;;;;;;5074974;28;20197;-80
2020/12/23 10:02:53;;;;;;;0.30;0.30;;;13.60;99.90;;;;;;5094183;28;20221;-77
2020/12/23 10:05:18;;;;;;;5.05;0.30;;;13.60;99.90;;;;;;5094784;28;20190;-76
2020/12/23 10:07:44;;;;;;;0.40;0.40;;;13.50;99.90;;;;;;5094038;28;20521;-76
2020/12/23 10:10:09;;;;;;;0.15;0.15;;;13.60;99.90;;;;;;5094091;28;20166;-77
2020/12/23 10:12:36;;;;;;;0.70;0.70;;;13.70;99.90;;;;;;5094137;28;20226;-77
2020/12/23 10:15:03;;;;;;;0.10;0.10;;;13.80;99.90;;;;;;5075652;28;20795;-77
2020/12/23 10:17:29;;;;;;;0.10;0.10;;;13.80;99.90;;;;;;5075302;28;20256;-77
2020/12/23 10:19:54;;;;;;;0.10;0.10;;;13.80;99.90;;;;;;5093895;28;20208;-76
2020/12/23 10:22:20;;;;;;;0.30;0.30;;;14.00;99.90;;;;;;5075483;28;20290;-76
2020/12/23 10:24:46;;;;;;;0.32;0.32;;;14.00;99.90;;;;;;5093908;28;20197;-75
2020/12/23 10:27:11;;;;;;;0.10;0.10;;;14.10;99.90;;;;;;5093880;28;20512;-80
2020/12/23 10:29:37;;;;;;;0.13;0.13;;;14.10;99.90;;;;;;5093724;28;20169;-76
2020/12/23 10:32:02;;;;;;;0.20;0.20;;;14.10;99.90;;;;;;5093852;28;20617;-76
2020/12/23 10:34:28;;;;;;;1.00;0.60;;;14.20;99.90;;;;;;5093808;28;20546;-77
2020/12/23 10:36:54;;;;;;;0.82;0.82;;;14.40;99.90;;;;;;5106174;22;20722;-74
2020/12/23 10:39:20;;;;;;;0.20;0.20;;;14.40;99.90;;;;;;5075608;28;20245;-74
2020/12/23 10:41:46;;;;;;;1.25;0.75;;;14.50;99.90;;;;;;5093124;28;20197;-74
2020/12/23 10:44:12;;;;;;;0.38;0.20;;;14.40;99.90;;;;;;5093332;28;20276;-74
2020/12/23 10:46:38;;;;;;;0.43;0.43;;;14.50;99.90;;;;;;5093092;28;20173;-75
2020/12/23 10:49:06;;;;;;;0.30;0.30;;;14.60;99.90;;;;;;5093236;28;20166;-74
2020/12/23 10:51:33;;;;;;;0.93;0.85;;;14.40;99.90;;;;;;5093407;28;20158;-74
2020/12/23 10:53:58;;;;;;;0.10;0.10;;;14.40;99.90;;;;;;5093025;28;20270;-75
2020/12/23 10:56:24;;;;;;;0.77;0.55;;;14.40;99.90;;;;;;5092597;28;20255;-75
2020/12/23 10:58:49;;;;;;;0.45;0.30;;;14.60;99.90;;;;;;5092819;28;20166;-75
2020/12/23 11:01:18;;;;;;;0.55;0.55;;;14.60;99.90;;;;;;5092767;28;20194;-80
2020/12/23 11:03:44;;;;;;;1.35;0.20;;;14.40;99.90;;;;;;5092730;28;20630;-74
2020/12/23 11:06:14;;;;;;;0.13;0.13;;;14.10;99.90;;;;;;5092796;28;20170;-74
2020/12/23 11:08:39;;;;;;;0.20;0.20;;;14.00;99.90;;;;;;5092671;28;20169;-74
2020/12/23 11:11:05;;;;;;;0.10;0.10;;;14.10;99.90;;;;;;5074206;28;20185;-74
2020/12/23 11:13:30;;;;;;;0.22;0.22;;;14.10;99.90;;;;;;5092537;28;20162;-77
2020/12/23 11:15:56;;;;;;;0.80;0.80;;;14.00;99.90;;;;;;5092733;28;20194;-77
2020/12/23 11:18:21;;;;;;;2.00;0.70;;;14.00;99.90;;;;;;5092353;28;20205;-75
2020/12/23 11:20:47;;;;;;;0.30;0.30;;;14.10;99.90;;;;;;5092486;28;20201;-77
2020/12/23 11:23:26;;;;;;;0.10;0.10;;;14.00;99.90;;;;;;5074616;28;20198;-77
2020/12/23 11:25:52;;;;;;;0.20;0.20;;;14.00;99.90;;;;;;5092265;28;20185;-76
2020/12/23 11:28:18;;;;;;;0.35;0.35;;;13.90;99.90;;;;;;5092738;28;20241;-76
2020/12/23 11:30:44;;;;;;;0.38;0.30;;;14.00;99.90;;;;;;5092575;28;20182;-76
2020/12/23 11:33:09;;;;;;;0.32;0.32;;;13.90;99.90;;;;;;5092507;28;20158;-77
2020/12/23 11:35:35;;;;;;;0.20;0.20;;;14.00;99.90;;;;;;5074397;28;20286;-78
2020/12/23 11:38:01;;;;;;;0.13;0.13;;;14.00;99.90;;;;;;5092522;28;20169;-78
2020/12/23 11:40:32;;;;;;;0.20;0.20;;;13.80;99.90;;;;;;5092481;28;20220;-79
2020/12/23 11:42:58;;;;;;;0.20;0.20;;;13.80;99.90;;;;;;5092626;28;20166;-79
2020/12/23 11:45:23;;;;;;;0.40;0.25;;;13.80;99.90;;;;;;5092519;28;20180;-78
2020/12/23 11:47:52;;;;;;;0.17;0.17;;;13.80;99.90;;;;;;5092337;28;20244;-79
2020/12/23 11:50:17;;;;;;;2.67;1.45;;;13.80;99.90;;;;;;5074417;28;20649;-79
2020/12/23 11:52:43;;;;;;;0.40;0.30;;;13.80;99.90;;;;;;5092793;28;20169;-79
2020/12/23 11:55:09;;;;;;;0.45;0.30;;;13.80;99.90;;;;;;5092325;28;20241;-77
2020/12/23 11:57:38;;;;;;;0.10;0.10;;;13.80;99.90;;;;;;5092551;28;20166;-76
2020/12/23 12:00:05;;;;;;;1.33;0.77;;;13.80;99.90;;;;;;5074209;28;20162;-76
2020/12/23 12:02:31;;;;;;;0.15;0.15;;;13.70;99.90;;;;;;5074086;28;20260;-76
2020/12/23 12:04:56;;;;;;;0.17;0.17;;;13.80;99.90;;;;;;5092443;28;20316;-76
2020/12/23 12:07:22;;;;;;;3.30;1.20;;;13.90;99.90;;;;;;5092246;28;20621;-76
2020/12/23 12:09:47;;;;;;;0.10;0.10;;;13.80;99.90;;;;;;5092560;28;20170;-76
2020/12/23 12:12:13;;;;;;;0.30;0.30;;;14.00;99.90;;;;;;5092425;28;20186;-77
2020/12/23 12:14:38;;;;;;;0.40;0.40;;;14.10;99.90;;;;;;5092365;28;20189;-76
2020/12/23 12:17:04;;;;;;;10.07;1.38;;;14.10;99.90;;;;;;5092212;28;20162;-75
2020/12/23 12:19:29;;;;;;;0.60;0.40;;;14.10;99.90;;;;;;5074138;28;20170;-77
2020/12/23 12:21:55;;;;;;;0.30;0.30;;;14.20;99.90;;;;;;5092181;28;20237;-77
2020/12/23 12:24:20;;;;;;;0.30;0.30;;;14.40;99.90;;;;;;5094600;28;20182;-77
2020/12/23 12:26:46;;;;;;;0.22;0.20;;;14.30;99.90;;;;;;5095981;28;20166;-77
2020/12/23 12:29:12;;;;;;;0.10;0.10;;;14.20;99.90;;;;;;5077519;28;20224;-77
2020/12/23 12:31:38;;;;;;;0.10;0.10;;;14.00;99.90;;;;;;5095784;28;20654;-77
2020/12/23 12:34:04;;;;;;;0.52;0.47;;;14.00;99.90;;;;;;5095680;28;20186;-77
2020/12/23 12:36:29;;;;;;;0.30;0.30;;;13.90;99.90;;;;;;5095514;28;20217;-75
2020/12/23 12:38:55;;;;;;;0.10;0.10;;;14.00;99.90;;;;;;5095521;28;20178;-75
2020/12/23 12:41:27;;;;;;;0.20;0.20;;;14.20;99.90;;;;;;5095435;28;20197;-76
2020/12/23 12:43:54;;;;;;;0.13;0.13;;;14.20;99.90;;;;;;5077433;28;20174;-75
2020/12/23 12:46:22;;;;;;;0.30;0.22;;;14.40;99.90;;;;;;5095459;28;20185;-76
2020/12/23 12:48:48;;;;;;;0.20;0.20;;;14.30;99.90;;;;;;5095315;28;20170;-76
2020/12/23 12:51:14;;;;;;;0.20;0.20;;;14.40;99.90;;;;;;5095231;28;20613;-77